createdAt,value
2019-03-01T00:01:45.831Z,10.20
2019-03-01T00:04:15.805Z,10.20
2019-03-01T00:06:51.848Z,10.10
2019-03-01T00:09:33.653Z,10.10
2019-03-01T00:12:15.293Z,10.10
2019-03-01T00:15:20.470Z,10.00
2019-03-01T00:18:08.889Z,10.00
2019-03-01T00:20:57.300Z,9.90
2019-03-01T00:23:29.949Z,9.80
2019-03-01T00:26:05.737Z,9.70
2019-03-01T00:28:36.864Z,9.70
2019-03-01T00:31:15.625Z,9.70
2019-03-01T00:34:17.662Z,9.70
2019-03-01T00:37:06.210Z,9.80
2019-03-01T00:39:42.178Z,9.90
2019-03-01T00:42:24.384Z,9.90
2019-03-01T00:44:50.640Z,10.00
2019-03-01T00:47:16.845Z,10.00
2019-03-01T00:49:43.018Z,10.10
2019-03-01T00:52:09.594Z,10.20
2019-03-01T00:54:35.765Z,10.20
2019-03-01T00:57:02.227Z,10.20
2019-03-01T00:59:31.726Z,10.20
2019-03-01T01:01:57.927Z,10.20
2019-03-01T01:04:24.107Z,10.20
2019-03-01T01:06:52.972Z,10.20
2019-03-01T01:09:19.149Z,10.20
2019-03-01T01:11:45.456Z,10.20
2019-03-01T01:14:11.616Z,10.30
2019-03-01T01:16:37.809Z,10.30
2019-03-01T01:19:03.982Z,10.40
2019-03-01T01:21:30.275Z,10.40
2019-03-01T01:23:56.433Z,10.40
2019-03-01T01:26:22.620Z,10.30
2019-03-01T01:28:48.821Z,10.40
2019-03-01T01:31:14.978Z,10.40
2019-03-01T01:33:41.167Z,10.50
2019-03-01T01:36:07.339Z,10.50
2019-03-01T01:38:33.614Z,10.50
2019-03-01T01:40:59.786Z,10.40
2019-03-01T01:43:25.994Z,10.40
2019-03-01T01:45:52.379Z,10.40
2019-03-01T01:48:18.664Z,10.40
2019-03-01T01:50:44.840Z,10.40
2019-03-01T01:53:11.049Z,10.30
2019-03-01T01:55:39.795Z,10.30
2019-03-01T01:58:06.003Z,10.40
2019-03-01T02:00:32.459Z,10.50
2019-03-01T02:02:58.662Z,10.50
2019-03-01T02:05:24.962Z,10.50
2019-03-01T02:07:51.133Z,10.50
2019-03-01T02:10:17.410Z,10.50
2019-03-01T02:12:43.600Z,10.50
2019-03-01T02:15:12.624Z,10.60
2019-03-01T02:17:41.559Z,10.60
2019-03-01T02:20:10.357Z,10.50
2019-03-01T02:22:39.172Z,10.50
2019-03-01T02:25:08.969Z,10.50
2019-03-01T02:27:38.077Z,10.50
2019-03-01T02:30:08.168Z,10.40
2019-03-01T02:32:42.225Z,10.40
2019-03-01T02:35:13.366Z,10.40
2019-03-01T02:37:39.621Z,10.40
2019-03-01T02:40:08.535Z,10.40
2019-03-01T02:42:34.730Z,10.40
2019-03-01T02:45:01.009Z,10.40
2019-03-01T02:47:27.195Z,10.30
2019-03-01T02:49:53.388Z,10.30
2019-03-01T02:52:22.512Z,10.20
2019-03-01T02:54:48.989Z,10.20
2019-03-01T02:57:15.184Z,10.20
2019-03-01T02:59:43.950Z,10.10
2019-03-01T03:02:10.123Z,10.10
2019-03-01T03:04:36.391Z,10.20
2019-03-01T03:07:04.481Z,10.20
2019-03-01T03:09:30.659Z,10.20
2019-03-01T03:11:56.819Z,10.10
2019-03-01T03:14:32.122Z,10.10
2019-03-01T03:16:58.288Z,10.10
2019-03-01T03:19:36.606Z,10.20
2019-03-01T03:22:05.329Z,10.20
2019-03-01T03:24:34.254Z,10.20
2019-03-01T03:27:00.409Z,10.20
2019-03-01T03:29:26.591Z,10.20
2019-03-01T03:31:52.800Z,10.20
2019-03-01T03:34:19.072Z,10.20
2019-03-01T03:36:45.312Z,10.20
2019-03-01T03:39:11.498Z,10.30
2019-03-01T03:41:37.770Z,10.20
2019-03-01T03:44:03.995Z,10.20
2019-03-01T03:46:30.163Z,10.10
2019-03-01T03:48:56.363Z,10.10
2019-03-01T03:51:22.535Z,10.00
2019-03-01T03:53:48.807Z,10.00
2019-03-01T03:56:15.101Z,10.10
2019-03-01T03:58:41.370Z,10.10
2019-03-01T04:01:07.776Z,10.10
2019-03-01T04:03:33.965Z,10.10
2019-03-01T04:06:00.372Z,10.10
2019-03-01T04:08:26.552Z,10.20
2019-03-01T04:10:52.848Z,10.20
2019-03-01T04:13:19.103Z,10.20
2019-03-01T04:15:45.757Z,10.30
2019-03-01T04:18:11.943Z,10.30
2019-03-01T04:20:38.217Z,10.30
2019-03-01T04:23:04.408Z,10.30
2019-03-01T04:25:30.575Z,10.20
2019-03-01T04:27:56.754Z,10.20
2019-03-01T04:30:23.013Z,10.20
2019-03-01T04:32:52.096Z,10.20
2019-03-01T04:35:18.481Z,10.20
2019-03-01T04:37:44.672Z,10.20
2019-03-01T04:40:13.202Z,10.30
2019-03-01T04:42:42.343Z,10.30
2019-03-01T04:45:17.783Z,10.30
2019-03-01T04:47:46.476Z,10.30
2019-03-01T04:50:12.671Z,10.30
2019-03-01T04:52:39.347Z,10.30
2019-03-01T04:55:08.611Z,10.20
2019-03-01T04:57:34.783Z,10.30
2019-03-01T05:00:01.173Z,10.30
2019-03-01T05:02:27.339Z,10.20
2019-03-01T05:04:53.650Z,10.20
2019-03-01T05:07:22.743Z,10.20
2019-03-01T05:09:48.939Z,10.20
2019-03-01T05:12:15.129Z,10.20
2019-03-01T05:14:41.308Z,10.20
2019-03-01T05:17:07.544Z,10.20
2019-03-01T05:19:33.830Z,10.20
2019-03-01T05:22:00.060Z,10.20
2019-03-01T05:24:26.252Z,10.20
2019-03-01T05:26:52.498Z,10.20
2019-03-01T05:29:18.677Z,10.20
2019-03-01T05:31:54.006Z,10.20
2019-03-01T05:34:20.183Z,10.20
2019-03-01T05:36:46.391Z,10.20
2019-03-01T05:39:12.578Z,10.20
2019-03-01T05:41:38.762Z,10.20
2019-03-01T05:44:04.949Z,10.20
2019-03-01T05:46:31.118Z,10.20
2019-03-01T05:48:59.993Z,10.20
2019-03-01T05:51:26.183Z,10.20
2019-03-01T05:53:52.358Z,10.20
2019-03-01T05:56:18.532Z,10.10
2019-03-01T05:58:44.715Z,10.20
2019-03-01T06:01:20.258Z,10.20
2019-03-01T06:03:58.693Z,10.10
2019-03-01T06:06:49.946Z,10.10
2019-03-01T06:09:46.374Z,10.10
2019-03-01T06:12:45.328Z,10.00
2019-03-01T06:15:35.349Z,10.00
2019-03-01T06:18:22.713Z,10.00
2019-03-01T06:21:01.798Z,9.90
2019-03-01T06:23:46.634Z,9.90
2019-03-01T06:26:28.929Z,9.80
2019-03-01T06:29:20.168Z,9.80
2019-03-01T06:32:01.757Z,9.80
2019-03-01T06:34:40.490Z,9.80
2019-03-01T06:37:39.703Z,9.80
2019-03-01T06:40:48.247Z,9.70
2019-03-01T06:43:32.745Z,9.70
2019-03-01T06:46:20.494Z,9.70
2019-03-01T06:48:51.592Z,9.60
2019-03-01T06:51:28.736Z,9.60
2019-03-01T06:53:50.915Z,9.60
2019-03-01T06:56:19.899Z,9.60
2019-03-01T06:58:46.373Z,9.70
2019-03-01T07:01:14.189Z,9.70
2019-03-01T07:03:50.938Z,9.80
2019-03-01T07:06:17.124Z,9.80
2019-03-01T07:08:43.302Z,9.80
2019-03-01T07:11:09.591Z,9.80
2019-03-01T07:13:35.773Z,9.80
2019-03-01T07:16:07.898Z,9.80
2019-03-01T07:18:34.287Z,9.70
2019-03-01T07:21:00.548Z,9.50
2019-03-01T07:23:36.264Z,9.40
2019-03-01T07:25:55.056Z,9.30
2019-03-01T07:28:24.154Z,9.20
2019-03-01T07:31:09.257Z,9.10
2019-03-01T07:33:35.528Z,9.00
2019-03-01T07:36:01.865Z,9.00
2019-03-01T07:38:28.048Z,8.90
2019-03-01T07:40:54.282Z,8.90
2019-03-01T07:43:20.449Z,8.80
2019-03-01T07:45:46.607Z,8.80
2019-03-01T07:48:12.794Z,8.70
2019-03-01T07:50:38.977Z,8.60
2019-03-01T07:53:07.872Z,8.50
2019-03-01T07:55:34.218Z,8.50
2019-03-01T07:58:03.407Z,8.50
2019-03-01T08:00:29.649Z,8.50
2019-03-01T08:03:15.128Z,8.50
2019-03-01T08:05:42.429Z,8.50
2019-03-01T08:08:08.593Z,8.50
2019-03-01T08:10:34.801Z,8.60
2019-03-01T08:13:00.977Z,8.60
2019-03-01T08:15:27.177Z,8.60
2019-03-01T08:17:53.357Z,8.50
2019-03-01T08:20:19.669Z,8.40
2019-03-01T08:22:49.066Z,8.30
2019-03-01T08:25:14.363Z,8.30
2019-03-01T08:27:46.442Z,8.30
2019-03-01T08:30:13.719Z,8.20
2019-03-01T08:32:58.596Z,8.20
2019-03-01T08:35:43.412Z,8.10
2019-03-01T08:38:10.000Z,8.10
2019-03-01T08:40:39.211Z,8.10
2019-03-01T08:43:11.693Z,8.10
2019-03-01T08:45:36.373Z,8.10
2019-03-01T08:48:02.726Z,8.10
2019-03-01T08:50:32.089Z,8.10
2019-03-01T08:53:16.960Z,8.10
2019-03-01T08:55:43.145Z,8.10
2019-03-01T08:58:24.572Z,8.00
2019-03-01T09:00:59.208Z,7.90
2019-03-01T09:03:28.615Z,7.70
2019-03-01T09:06:13.497Z,7.70
2019-03-01T09:08:46.241Z,7.70
2019-03-01T09:11:11.737Z,7.60
2019-03-01T09:13:37.966Z,7.50
2019-03-01T09:16:04.385Z,7.50
2019-03-01T09:18:33.970Z,7.50
2019-03-01T09:21:05.600Z,7.50
2019-03-01T09:23:28.496Z,7.60
2019-03-01T09:25:54.675Z,7.70
2019-03-01T09:28:20.860Z,7.70
2019-03-01T09:30:47.077Z,7.80
2019-03-01T09:33:17.137Z,7.80
2019-03-01T09:35:46.403Z,7.90
2019-03-01T09:38:32.487Z,7.80
2019-03-01T09:41:04.377Z,7.70
2019-03-01T09:43:29.699Z,7.60
2019-03-01T09:45:55.991Z,7.60
2019-03-01T09:48:22.208Z,7.50
2019-03-01T09:50:48.429Z,7.50
2019-03-01T09:53:17.216Z,7.50
2019-03-01T09:55:43.691Z,7.60
2019-03-01T09:58:10.181Z,7.50
2019-03-01T10:00:58.310Z,7.40
2019-03-01T10:03:27.054Z,7.40
2019-03-01T10:05:54.941Z,7.40
2019-03-01T10:08:27.421Z,7.40
2019-03-01T10:10:53.636Z,7.40
2019-03-01T10:13:20.029Z,7.50
2019-03-01T10:15:46.208Z,7.60
2019-03-01T10:18:12.490Z,7.70
2019-03-01T10:20:38.863Z,7.70
2019-03-01T10:23:05.062Z,7.70
2019-03-01T10:25:31.493Z,7.80
2019-03-01T10:28:00.570Z,7.90
2019-03-01T10:30:27.320Z,8.00
2019-03-01T10:32:53.738Z,8.10
2019-03-01T10:35:22.578Z,8.00
2019-03-01T10:37:48.798Z,8.00
2019-03-01T10:40:22.501Z,8.00
2019-03-01T10:42:53.436Z,8.00
2019-03-01T10:45:27.363Z,8.00
2019-03-01T10:48:09.080Z,8.10
2019-03-01T10:50:35.612Z,8.10
2019-03-01T10:53:01.802Z,8.10
2019-03-01T10:55:28.094Z,8.00
2019-03-01T10:57:54.480Z,7.90
2019-03-01T11:00:29.088Z,8.00
2019-03-01T11:02:58.220Z,8.00
2019-03-01T11:05:42.906Z,8.00
2019-03-01T11:08:09.271Z,7.90
2019-03-01T11:10:41.129Z,7.90
2019-03-01T11:13:13.266Z,7.80
2019-03-01T11:15:39.575Z,7.70
2019-03-01T11:18:06.049Z,7.70
2019-03-01T11:20:32.245Z,7.60
2019-03-01T11:22:58.451Z,7.60
2019-03-01T11:25:25.050Z,7.60
2019-03-01T11:28:10.545Z,7.60
2019-03-01T11:30:37.036Z,7.70
2019-03-01T11:33:03.335Z,7.70
2019-03-01T11:35:29.601Z,7.70
2019-03-01T11:38:14.362Z,7.70
2019-03-01T11:40:40.590Z,7.70
2019-03-01T11:43:06.801Z,7.70
2019-03-01T11:45:51.653Z,7.60
2019-03-01T11:48:17.855Z,7.60
2019-03-01T11:50:44.037Z,7.60
2019-03-01T11:53:10.238Z,7.70
2019-03-01T11:55:36.411Z,7.80
2019-03-01T11:58:02.702Z,7.80
2019-03-01T12:00:29.215Z,7.70
2019-03-01T12:02:55.529Z,7.70
2019-03-01T12:05:24.293Z,7.70
2019-03-01T12:07:50.492Z,7.60
2019-03-01T12:10:22.318Z,7.60
2019-03-01T12:12:51.167Z,7.60
2019-03-01T12:15:17.463Z,7.60
2019-03-01T12:17:43.696Z,7.50
2019-03-01T12:20:21.234Z,7.50
2019-03-01T12:22:47.537Z,7.50
2019-03-01T12:25:13.868Z,7.50
2019-03-01T12:27:42.725Z,7.50
2019-03-01T12:30:13.345Z,7.50
2019-03-01T12:32:57.953Z,7.60
2019-03-01T12:35:24.134Z,7.70
2019-03-01T12:37:50.366Z,7.80
2019-03-01T12:40:19.323Z,7.90
2019-03-01T12:42:54.874Z,8.00
2019-03-01T12:45:21.146Z,8.00
2019-03-01T12:47:47.462Z,8.00
2019-03-01T12:50:13.924Z,7.90
2019-03-01T12:52:55.381Z,7.80
2019-03-01T12:55:22.944Z,7.70
2019-03-01T12:57:58.337Z,7.70
2019-03-01T13:00:27.948Z,7.70
2019-03-01T13:02:56.960Z,7.70
2019-03-01T13:05:25.704Z,7.70
2019-03-01T13:08:12.531Z,7.80
2019-03-01T13:10:56.122Z,7.80
2019-03-01T13:13:22.427Z,7.90
2019-03-01T13:15:51.982Z,8.00
2019-03-01T13:18:16.970Z,8.10
2019-03-01T13:20:46.053Z,8.00
2019-03-01T13:23:12.256Z,8.00
2019-03-01T13:25:50.798Z,8.20
2019-03-01T13:28:17.032Z,8.30
2019-03-01T13:30:43.273Z,8.40
2019-03-01T13:33:09.554Z,8.40
2019-03-01T13:35:38.796Z,8.40
2019-03-01T13:38:05.200Z,8.50
2019-03-01T13:40:31.392Z,8.60
2019-03-01T13:42:57.652Z,8.60
2019-03-01T13:45:24.648Z,8.50
2019-03-01T13:47:50.979Z,8.40
2019-03-01T13:50:21.920Z,8.40
2019-03-01T13:52:51.129Z,8.40
2019-03-01T13:55:36.199Z,8.30
2019-03-01T13:58:02.445Z,8.30
2019-03-01T14:00:31.602Z,8.20
2019-03-01T14:02:57.792Z,8.20
2019-03-01T14:05:26.742Z,8.30
2019-03-01T14:08:11.788Z,8.30
2019-03-01T14:10:57.102Z,8.40
2019-03-01T14:13:26.207Z,8.40
2019-03-01T14:15:52.516Z,8.40
2019-03-01T14:18:18.872Z,8.40
2019-03-01T14:20:45.066Z,8.40
2019-03-01T14:23:11.330Z,8.40
2019-03-01T14:25:41.708Z,8.40
2019-03-01T14:28:08.687Z,8.40
2019-03-01T14:30:37.771Z,8.40
2019-03-01T14:33:04.142Z,8.50
2019-03-01T14:35:33.024Z,8.40
2019-03-01T14:37:59.201Z,8.30
2019-03-01T14:40:25.768Z,8.30
2019-03-01T14:43:12.293Z,8.40
2019-03-01T14:45:41.721Z,8.50
2019-03-01T14:48:08.567Z,8.50
2019-03-01T14:50:35.031Z,8.40
2019-03-01T14:53:20.091Z,8.40
2019-03-01T14:55:58.888Z,8.30
2019-03-01T14:58:30.794Z,8.30
2019-03-01T15:01:09.386Z,8.30
2019-03-01T15:03:36.818Z,8.30
2019-03-01T15:06:06.388Z,8.30
2019-03-01T15:08:33.086Z,8.20
2019-03-01T15:11:17.952Z,8.20
2019-03-01T15:13:45.814Z,8.20
2019-03-01T15:16:30.784Z,8.30
2019-03-01T15:18:56.983Z,8.20
2019-03-01T15:21:23.249Z,8.20
2019-03-01T15:23:52.351Z,8.20
2019-03-01T15:26:18.576Z,8.20
2019-03-01T15:28:53.821Z,8.20
2019-03-01T15:31:17.933Z,8.10
2019-03-01T15:33:47.922Z,8.00
2019-03-01T15:36:18.041Z,7.90
2019-03-01T15:38:42.944Z,7.90
2019-03-01T15:41:09.242Z,7.90
2019-03-01T15:43:38.357Z,7.90
2019-03-01T15:46:23.150Z,7.90
2019-03-01T15:48:49.322Z,8.00
2019-03-01T15:51:15.495Z,8.00
2019-03-01T15:53:44.458Z,8.00
2019-03-01T15:56:10.803Z,8.00
2019-03-01T15:58:55.745Z,8.00
2019-03-01T16:01:22.017Z,7.90
2019-03-01T16:04:06.816Z,7.90
2019-03-01T16:06:33.069Z,7.80
2019-03-01T16:08:59.251Z,7.80
2019-03-01T16:11:25.487Z,7.80
2019-03-01T16:13:51.699Z,7.70
2019-03-01T16:16:17.923Z,7.70
2019-03-01T16:19:02.827Z,7.70
2019-03-01T16:21:29.089Z,7.70
2019-03-01T16:24:14.065Z,7.70
2019-03-01T16:26:40.344Z,7.70
2019-03-01T16:29:07.198Z,7.60
2019-03-01T16:31:34.382Z,7.60
2019-03-01T16:34:19.156Z,7.50
2019-03-01T16:36:46.289Z,7.50
2019-03-01T16:39:12.555Z,7.50
2019-03-01T16:41:39.681Z,7.60
2019-03-01T16:44:07.765Z,7.50
2019-03-01T16:46:52.440Z,7.40
2019-03-01T16:49:18.620Z,7.40
2019-03-01T16:51:44.843Z,7.30
2019-03-01T16:54:15.323Z,7.30
2019-03-01T16:56:39.441Z,7.30
2019-03-01T16:59:23.930Z,7.30
2019-03-01T17:01:50.207Z,7.30
2019-03-01T17:04:34.807Z,7.30
2019-03-01T17:07:00.983Z,7.20
2019-03-01T17:09:27.142Z,7.20
2019-03-01T17:11:53.371Z,7.20
2019-03-01T17:14:19.530Z,7.20
2019-03-01T17:16:45.847Z,7.20
2019-03-01T17:19:14.777Z,7.20
2019-03-01T17:21:41.088Z,7.10
2019-03-01T17:24:07.287Z,7.20
2019-03-01T17:26:33.569Z,7.10
2019-03-01T17:29:03.150Z,7.10
2019-03-01T17:31:27.983Z,7.10
2019-03-01T17:33:54.194Z,7.10
2019-03-01T17:36:20.572Z,7.10
2019-03-01T17:38:49.390Z,7.10
2019-03-01T17:41:15.608Z,7.10
2019-03-01T17:43:41.795Z,7.10
2019-03-01T17:46:08.035Z,7.00
2019-03-01T17:48:34.223Z,7.00
2019-03-01T17:51:03.081Z,7.00
2019-03-01T17:53:47.991Z,7.00
2019-03-01T17:56:14.245Z,7.00
2019-03-01T17:58:40.435Z,7.00
2019-03-01T18:01:06.614Z,7.00
2019-03-01T18:03:35.436Z,7.10
2019-03-01T18:06:01.831Z,7.00
2019-03-01T18:08:28.013Z,7.10
2019-03-01T18:10:54.262Z,7.10
2019-03-01T18:13:21.345Z,7.10
2019-03-01T18:15:48.520Z,7.00
2019-03-01T18:18:15.734Z,7.00
2019-03-01T18:20:41.932Z,7.10
2019-03-01T18:23:08.306Z,7.10
2019-03-01T18:25:37.628Z,7.10
2019-03-01T18:28:24.898Z,7.00
2019-03-01T18:30:52.049Z,7.10
2019-03-01T18:33:21.174Z,7.00
2019-03-01T18:35:58.950Z,7.00
2019-03-01T18:38:27.682Z,7.00
2019-03-01T18:41:08.427Z,7.00
2019-03-01T18:43:34.947Z,7.00
2019-03-01T18:46:03.792Z,6.90
2019-03-01T18:48:30.034Z,7.00
2019-03-01T18:50:56.201Z,7.00
2019-03-01T18:53:24.966Z,6.90
2019-03-01T18:55:52.916Z,6.90
2019-03-01T18:58:18.867Z,6.90
2019-03-01T19:00:49.502Z,6.90
2019-03-01T19:03:15.801Z,6.90
2019-03-01T19:05:42.167Z,6.80
2019-03-01T19:08:08.410Z,6.80
2019-03-01T19:10:35.106Z,6.80
2019-03-01T19:13:16.500Z,6.80
2019-03-01T19:15:42.675Z,6.80
2019-03-01T19:18:08.885Z,6.80
2019-03-01T19:20:49.043Z,6.70
2019-03-01T19:23:15.390Z,6.80
2019-03-01T19:25:57.995Z,6.70
2019-03-01T19:28:26.770Z,6.70
2019-03-01T19:30:53.294Z,6.80
2019-03-01T19:33:19.583Z,6.80
2019-03-01T19:35:46.890Z,6.80
2019-03-01T19:38:28.631Z,6.80
2019-03-01T19:40:54.844Z,6.80
2019-03-01T19:43:21.136Z,6.80
2019-03-01T19:45:47.345Z,6.80
2019-03-01T19:48:13.627Z,6.80
2019-03-01T19:50:39.803Z,6.80
2019-03-01T19:53:06.004Z,6.80
2019-03-01T19:55:32.192Z,6.80
2019-03-01T19:57:58.394Z,6.80
2019-03-01T20:00:29.319Z,6.80
2019-03-01T20:02:55.506Z,6.80
2019-03-01T20:05:35.719Z,6.80
2019-03-01T20:08:02.125Z,6.70
2019-03-01T20:10:29.614Z,6.70
2019-03-01T20:12:55.927Z,6.70
2019-03-01T20:15:42.714Z,6.70
2019-03-01T20:18:09.735Z,6.60
2019-03-01T20:20:38.058Z,6.60
2019-03-01T20:23:04.263Z,6.60
2019-03-01T20:25:30.456Z,6.60
2019-03-01T20:27:56.737Z,6.60
2019-03-01T20:30:28.443Z,6.60
2019-03-01T20:32:52.481Z,6.60
2019-03-01T20:35:19.924Z,6.60
2019-03-01T20:37:49.341Z,6.60
2019-03-01T20:40:15.672Z,6.50
2019-03-01T20:42:42.374Z,6.50
2019-03-01T20:45:26.013Z,6.50
2019-03-01T20:47:53.576Z,6.50
2019-03-01T20:50:20.363Z,6.50
2019-03-01T20:52:46.767Z,6.50
2019-03-01T20:55:14.079Z,6.50
2019-03-01T20:57:40.345Z,6.50
2019-03-01T21:00:12.827Z,6.50
2019-03-01T21:02:51.518Z,6.50
2019-03-01T21:05:20.455Z,6.50
2019-03-01T21:07:48.197Z,6.50
2019-03-01T21:10:17.890Z,6.50
2019-03-01T21:12:46.800Z,6.60
2019-03-01T21:15:14.790Z,6.60
2019-03-01T21:17:41.094Z,6.60
2019-03-01T21:20:10.774Z,6.60
2019-03-01T21:22:43.296Z,6.60
2019-03-01T21:25:23.101Z,6.50
2019-03-01T21:27:49.318Z,6.40
2019-03-01T21:30:24.014Z,6.40
2019-03-01T21:32:50.779Z,6.40
2019-03-01T21:35:17.967Z,6.30
2019-03-01T21:37:59.382Z,6.30
2019-03-01T21:40:25.576Z,6.30
2019-03-01T21:42:52.777Z,6.30
2019-03-01T21:45:38.434Z,6.40
2019-03-01T21:48:04.728Z,6.40
2019-03-01T21:50:30.980Z,6.40
2019-03-01T21:52:57.167Z,6.40
2019-03-01T21:55:28.565Z,6.40
2019-03-01T21:57:54.460Z,6.40
2019-03-01T22:00:29.594Z,6.40
2019-03-01T22:02:54.419Z,6.40
2019-03-01T22:05:20.731Z,6.40
2019-03-01T22:07:47.049Z,6.40
2019-03-01T22:10:16.079Z,6.40
2019-03-01T22:12:42.345Z,6.30
2019-03-01T22:15:27.758Z,6.40
2019-03-01T22:17:54.458Z,6.30
2019-03-01T22:20:23.203Z,6.30
2019-03-01T22:22:49.457Z,6.30
2019-03-01T22:25:15.696Z,6.30
2019-03-01T22:27:42.668Z,6.30
2019-03-01T22:30:29.068Z,6.30
2019-03-01T22:32:55.397Z,6.30
2019-03-01T22:35:21.612Z,6.30
2019-03-01T22:37:47.811Z,6.20
2019-03-01T22:40:14.034Z,6.20
2019-03-01T22:42:40.245Z,6.30
2019-03-01T22:45:13.318Z,6.30
2019-03-01T22:47:38.570Z,6.30
2019-03-01T22:50:11.470Z,6.30
2019-03-01T22:52:40.545Z,6.30
2019-03-01T22:55:09.048Z,6.30
2019-03-01T22:57:35.263Z,6.30
2019-03-01T23:00:01.596Z,6.30
2019-03-01T23:02:27.787Z,6.30
2019-03-01T23:04:53.994Z,6.30
2019-03-01T23:07:23.447Z,6.30
2019-03-01T23:09:51.235Z,6.30
2019-03-01T23:12:17.451Z,6.30
2019-03-01T23:14:43.695Z,6.30
2019-03-01T23:17:09.917Z,6.30
2019-03-01T23:19:36.172Z,6.30
2019-03-01T23:22:02.472Z,6.30
2019-03-01T23:24:31.659Z,6.30
2019-03-01T23:26:57.756Z,6.30
2019-03-01T23:29:24.052Z,6.30
2019-03-01T23:31:50.391Z,6.30
2019-03-01T23:34:16.719Z,6.30
2019-03-01T23:36:45.707Z,6.30
2019-03-01T23:39:11.953Z,6.30
2019-03-01T23:41:38.433Z,6.30
2019-03-01T23:44:23.355Z,6.30
2019-03-01T23:46:49.679Z,6.30
2019-03-01T23:49:15.886Z,6.30
2019-03-01T23:51:42.483Z,6.30
2019-03-01T23:54:10.352Z,6.30
2019-03-01T23:56:39.257Z,6.30
2019-03-01T23:59:05.424Z,6.20
